createdAt,value
2023-03-05T00:00:26.953Z,99977.22
2023-03-05T00:03:16.376Z,99978.97
2023-03-05T00:05:44.107Z,99980.38
2023-03-05T00:08:12.173Z,99971.19
2023-03-05T00:10:39.779Z,99975.06
2023-03-05T00:13:07.808Z,99970.22
2023-03-05T00:15:41.172Z,99964.41
2023-03-05T00:18:09.289Z,99963.44
2023-03-05T00:20:38.410Z,99968.28
2023-03-05T00:23:06.895Z,99960.34
2023-03-05T00:25:36.549Z,99969.31
2023-03-05T00:28:05.542Z,99959.38
2023-03-05T00:30:34.421Z,99959.41
2023-03-05T00:33:02.597Z,99950.16
2023-03-05T00:35:30.253Z,99957.56
2023-03-05T00:37:59.884Z,99954.19
2023-03-05T00:40:27.288Z,99957.34
2023-03-05T00:42:55.522Z,99949.25
2023-03-05T00:45:23.045Z,99941.66
2023-03-05T00:47:50.966Z,99939.59
2023-03-05T00:50:18.690Z,99946.66
2023-03-05T00:52:46.621Z,99936.88
2023-03-05T00:55:15.682Z,99924.00
2023-03-05T00:57:43.730Z,99930.00
2023-03-05T01:00:13.606Z,99932.91
2023-03-05T01:02:42.526Z,99921.97
2023-03-05T01:05:12.354Z,99911.88
2023-03-05T01:07:41.144Z,99907.81
2023-03-05T01:10:10.622Z,99910.69
2023-03-05T01:12:40.441Z,99897.94
2023-03-05T01:15:08.527Z,99905.56
2023-03-05T01:17:36.432Z,99911.44
2023-03-05T01:20:05.547Z,99904.88
2023-03-05T01:22:34.142Z,99900.72
2023-03-05T01:25:01.750Z,99887.13
2023-03-05T01:27:29.636Z,99889.50
2023-03-05T01:29:58.617Z,99886.59
2023-03-05T01:32:26.833Z,99890.41
2023-03-05T01:34:54.268Z,99890.25
2023-03-05T01:37:22.276Z,99895.56
2023-03-05T01:39:49.921Z,99892.69
2023-03-05T01:42:17.909Z,99891.44
2023-03-05T01:45:02.830Z,99884.53
2023-03-05T01:47:30.970Z,99896.81
2023-03-05T01:49:58.936Z,99890.53
2023-03-05T01:52:29.865Z,99889.56
2023-03-05T01:54:59.877Z,99889.22
2023-03-05T01:57:31.983Z,99889.34
2023-03-05T02:00:06.087Z,99875.09
2023-03-05T02:02:34.165Z,99879.31
2023-03-05T02:05:05.291Z,99865.44
2023-03-05T02:07:34.560Z,99864.88
2023-03-05T02:10:02.193Z,99862.00
2023-03-05T02:12:30.742Z,99859.84
2023-03-05T02:14:58.366Z,99861.25
2023-03-05T02:17:29.159Z,99871.88
2023-03-05T02:20:05.147Z,99878.72
2023-03-05T02:22:34.819Z,99879.84
2023-03-05T02:25:02.398Z,99873.75
2023-03-05T02:27:33.014Z,99874.81
2023-03-05T02:30:01.515Z,99867.53
2023-03-05T02:32:29.599Z,99867.66
2023-03-05T02:34:57.225Z,99856.78
2023-03-05T02:37:25.228Z,99860.16
2023-03-05T02:39:54.363Z,99844.88
2023-03-05T02:42:22.428Z,99846.88
2023-03-05T02:44:49.920Z,99852.00
2023-03-05T02:47:18.027Z,99844.47
2023-03-05T02:49:45.635Z,99842.22
2023-03-05T02:52:13.623Z,99826.97
2023-03-05T02:54:41.148Z,99822.91
2023-03-05T02:57:10.597Z,99821.06
2023-03-05T02:59:38.214Z,99826.47
2023-03-05T03:02:06.626Z,99832.38
2023-03-05T03:04:34.157Z,99831.88
2023-03-05T03:07:02.190Z,99834.50
2023-03-05T03:09:29.865Z,99824.25
2023-03-05T03:11:58.041Z,99816.94
2023-03-05T03:14:27.709Z,99818.31
2023-03-05T03:16:55.891Z,99809.19
2023-03-05T03:19:23.559Z,99811.34
2023-03-05T03:21:51.556Z,99803.13
2023-03-05T03:24:19.113Z,99807.41
2023-03-05T03:26:47.139Z,99803.34
2023-03-05T03:29:14.761Z,99804.63
2023-03-05T03:31:44.905Z,99807.50
2023-03-05T03:34:12.636Z,99794.69
2023-03-05T03:36:40.639Z,99795.22
2023-03-05T03:39:08.140Z,99783.75
2023-03-05T03:41:37.000Z,99783.81
2023-03-05T03:44:05.043Z,99786.84
2023-03-05T03:46:33.858Z,99770.22
2023-03-05T03:49:03.671Z,99780.56
2023-03-05T03:51:31.720Z,99771.03
2023-03-05T03:53:59.509Z,99767.63
2023-03-05T03:56:27.433Z,99768.41
2023-03-05T03:58:55.086Z,99761.31
2023-03-05T04:01:23.298Z,99758.66
2023-03-05T04:03:51.160Z,99752.19
2023-03-05T04:06:20.662Z,99745.25
2023-03-05T04:08:48.280Z,99746.81
2023-03-05T04:11:16.368Z,99739.13
2023-03-05T04:13:43.956Z,99741.53
2023-03-05T04:16:11.955Z,99737.31
2023-03-05T04:18:39.709Z,99739.72
2023-03-05T04:21:08.094Z,99731.22
2023-03-05T04:23:37.230Z,99726.28
2023-03-05T04:26:05.756Z,99730.13
2023-03-05T04:28:33.859Z,99724.69
2023-03-05T04:31:01.846Z,99716.94
2023-03-05T04:33:29.384Z,99717.03
2023-03-05T04:35:57.266Z,99716.16
2023-03-05T04:38:24.882Z,99706.13
2023-03-05T04:40:54.266Z,99704.53
2023-03-05T04:43:22.004Z,99705.38
2023-03-05T04:45:50.469Z,99705.03
2023-03-05T04:48:18.085Z,99699.28
2023-03-05T04:50:46.124Z,99694.91
2023-03-05T04:53:13.657Z,99696.91
2023-03-05T04:55:41.551Z,99695.09
2023-03-05T04:58:10.888Z,99688.59
2023-03-05T05:00:39.436Z,99687.09
2023-03-05T05:03:07.034Z,99681.06
2023-03-05T05:05:34.969Z,99674.16
2023-03-05T05:08:02.677Z,99679.91
2023-03-05T05:10:30.886Z,99676.38
2023-03-05T05:12:58.460Z,99668.97
2023-03-05T05:15:27.900Z,99676.09
2023-03-05T05:17:55.469Z,99676.06
2023-03-05T05:20:23.486Z,99679.81
2023-03-05T05:22:51.205Z,99670.88
2023-03-05T05:25:19.326Z,99675.22
2023-03-05T05:27:49.839Z,99673.25
2023-03-05T05:30:18.911Z,99675.31
2023-03-05T05:32:47.921Z,99676.25
2023-03-05T05:35:16.415Z,99675.66
2023-03-05T05:37:44.041Z,99672.59
2023-03-05T05:40:12.917Z,99675.84
2023-03-05T05:42:40.681Z,99676.25
2023-03-05T05:45:10.223Z,99671.22
2023-03-05T05:47:37.983Z,99675.28
2023-03-05T05:50:08.890Z,99673.72
2023-03-05T05:52:36.439Z,99668.44
2023-03-05T05:55:05.415Z,99672.75
2023-03-05T05:57:33.935Z,99678.19
2023-03-05T06:00:02.133Z,99668.75
2023-03-05T06:02:29.677Z,99671.53
2023-03-05T06:04:58.324Z,99669.59
2023-03-05T06:07:27.470Z,99675.97
2023-03-05T06:09:55.440Z,99667.22
2023-03-05T06:12:23.622Z,99674.81
2023-03-05T06:14:51.547Z,99672.03
2023-03-05T06:17:29.807Z,99668.75
2023-03-05T06:19:58.588Z,99671.41
2023-03-05T06:22:27.965Z,99663.72
2023-03-05T06:24:56.052Z,99663.94
2023-03-05T06:27:23.722Z,99661.88
2023-03-05T06:29:53.374Z,99663.66
2023-03-05T06:32:21.436Z,99670.50
2023-03-05T06:34:49.934Z,99660.97
2023-03-05T06:37:17.580Z,99663.63
2023-03-05T06:39:47.132Z,99664.31
2023-03-05T06:42:14.805Z,99653.38
2023-03-05T06:44:43.377Z,99662.34
2023-03-05T06:47:10.912Z,99662.81
2023-03-05T06:49:39.368Z,99656.69
2023-03-05T06:52:07.569Z,99655.69
2023-03-05T06:54:35.570Z,99660.47
2023-03-05T06:57:04.992Z,99663.38
2023-03-05T06:59:33.003Z,99672.88
2023-03-05T07:02:00.672Z,99655.97
2023-03-05T07:04:28.794Z,99665.38
2023-03-05T07:06:56.405Z,99662.69
2023-03-05T07:09:24.361Z,99668.19
2023-03-05T07:11:51.797Z,99664.44
2023-03-05T07:14:21.605Z,99665.53
2023-03-05T07:16:49.346Z,99668.69
2023-03-05T07:19:17.326Z,99667.59
2023-03-05T07:21:44.962Z,99663.34
2023-03-05T07:24:12.986Z,99666.66
2023-03-05T07:26:40.600Z,99663.53
2023-03-05T07:29:08.510Z,99659.91
2023-03-05T07:31:37.814Z,99668.25
2023-03-05T07:34:05.801Z,99657.53
2023-03-05T07:36:33.436Z,99653.31
2023-03-05T07:39:01.879Z,99654.75
2023-03-05T07:41:29.390Z,99664.25
2023-03-05T07:43:57.687Z,99657.69
2023-03-05T07:46:27.686Z,99663.41
2023-03-05T07:48:57.851Z,99675.13
2023-03-05T07:51:27.280Z,99659.66
2023-03-05T07:53:57.721Z,99666.22
2023-03-05T07:56:27.081Z,99661.13
2023-03-05T07:58:55.236Z,99665.09
2023-03-05T08:01:23.223Z,99662.59
2023-03-05T08:03:51.369Z,99668.75
2023-03-05T08:06:20.542Z,99664.25
2023-03-05T08:08:48.785Z,99666.13
2023-03-05T08:11:17.230Z,99668.72
2023-03-05T08:13:45.665Z,99671.44
2023-03-05T08:16:15.759Z,99671.53
2023-03-05T08:18:44.304Z,99664.13
2023-03-05T08:21:21.765Z,99677.38
2023-03-05T08:23:50.211Z,99669.59
2023-03-05T08:26:21.459Z,99671.34
2023-03-05T08:28:50.278Z,99672.00
2023-03-05T08:31:20.368Z,99662.59
2023-03-05T08:33:49.331Z,99666.63
2023-03-05T08:36:17.205Z,99662.34
2023-03-05T08:38:46.790Z,99662.56
2023-03-05T08:41:15.060Z,99657.97
2023-03-05T08:43:43.687Z,99663.00
2023-03-05T08:46:12.800Z,99653.63
2023-03-05T08:48:41.283Z,99653.50
2023-03-05T08:51:10.501Z,99663.00
2023-03-05T08:53:38.917Z,99667.09
2023-03-05T08:56:09.102Z,99659.19
2023-03-05T08:58:37.217Z,99650.81
2023-03-05T09:01:04.983Z,99649.34
2023-03-05T09:03:33.504Z,99650.53
2023-03-05T09:06:02.086Z,99655.78
2023-03-05T09:08:30.894Z,99646.78
2023-03-05T09:10:58.574Z,99646.78
2023-03-05T09:13:28.069Z,99648.72
2023-03-05T09:15:56.851Z,99642.31
2023-03-05T09:18:25.118Z,99645.84
2023-03-05T09:20:52.804Z,99640.00
2023-03-05T09:23:21.396Z,99638.94
2023-03-05T09:25:48.989Z,99647.59
2023-03-05T09:28:17.130Z,99642.56
2023-03-05T09:30:46.492Z,99637.28
2023-03-05T09:33:16.970Z,99639.56
2023-03-05T09:35:44.706Z,99639.47
2023-03-05T09:38:13.119Z,99629.44
2023-03-05T09:40:46.051Z,99627.19
2023-03-05T09:43:25.867Z,99626.06
2023-03-05T09:46:09.482Z,99614.28
2023-03-05T09:48:49.965Z,99614.16
2023-03-05T09:51:23.315Z,99613.75
2023-03-05T09:54:01.061Z,99604.22
2023-03-05T09:56:34.556Z,99597.88
2023-03-05T09:59:15.155Z,99604.44
2023-03-05T10:01:45.563Z,99600.88
2023-03-05T10:04:16.591Z,99601.97
2023-03-05T10:06:50.505Z,99603.44
2023-03-05T10:09:29.158Z,99591.56
2023-03-05T10:12:01.288Z,99592.81
2023-03-05T10:14:34.976Z,99583.84
2023-03-05T10:17:26.541Z,99578.09
2023-03-05T10:20:29.997Z,99577.91
2023-03-05T10:23:15.645Z,99577.94
2023-03-05T10:25:54.816Z,99580.44
2023-03-05T10:28:27.005Z,99577.66
2023-03-05T10:31:11.538Z,99579.34
2023-03-05T10:33:51.241Z,99578.53
2023-03-05T10:36:34.289Z,99586.75
2023-03-05T10:39:35.570Z,99576.28
2023-03-05T10:42:12.947Z,99573.78
2023-03-05T10:44:44.235Z,99565.94
2023-03-05T10:47:20.808Z,99573.47
2023-03-05T10:49:52.431Z,99564.97
2023-03-05T10:52:27.064Z,99561.75
2023-03-05T10:54:54.914Z,99557.00
2023-03-05T10:57:25.098Z,99558.94
2023-03-05T10:59:54.208Z,99567.91
2023-03-05T11:02:23.096Z,99559.66
2023-03-05T11:04:53.737Z,99563.56
2023-03-05T11:07:39.042Z,99565.94
2023-03-05T11:10:18.910Z,99555.47
2023-03-05T11:12:47.390Z,99553.34
2023-03-05T11:15:32.847Z,99548.34
2023-03-05T11:18:21.060Z,99550.84
2023-03-05T11:20:50.632Z,99541.88
2023-03-05T11:23:20.033Z,99545.53
2023-03-05T11:25:56.001Z,99540.75
2023-03-05T11:28:32.878Z,99526.72
2023-03-05T11:31:08.042Z,99526.66
2023-03-05T11:33:37.539Z,99519.72
2023-03-05T11:36:26.541Z,99520.31
2023-03-05T11:38:57.979Z,99514.31
2023-03-05T11:41:31.681Z,99504.31
2023-03-05T11:44:01.804Z,99516.38
2023-03-05T11:46:30.242Z,99502.06
2023-03-05T11:48:58.861Z,99509.91
2023-03-05T11:51:36.529Z,99500.88
2023-03-05T11:54:11.951Z,99502.84
2023-03-05T11:56:42.736Z,99506.34
2023-03-05T11:59:16.706Z,99496.81
2023-03-05T12:01:47.138Z,99480.09
2023-03-05T12:04:16.084Z,99484.00
2023-03-05T12:06:48.512Z,99486.38
2023-03-05T12:09:23.815Z,99480.81
2023-03-05T12:11:59.422Z,99475.41
2023-03-05T12:14:32.983Z,99462.88
2023-03-05T12:17:08.913Z,99472.47
2023-03-05T12:19:52.768Z,99472.22
2023-03-05T12:22:24.090Z,99468.13
2023-03-05T12:24:52.450Z,99460.06
2023-03-05T12:27:34.891Z,99464.13
2023-03-05T12:30:03.668Z,99456.13
2023-03-05T12:32:58.278Z,99452.06
2023-03-05T12:35:31.642Z,99456.19
2023-03-05T12:38:26.709Z,99445.69
2023-03-05T12:41:43.029Z,99448.34
2023-03-05T12:44:21.740Z,99444.56
2023-03-05T12:47:19.744Z,99441.75
2023-03-05T12:49:49.816Z,99441.75
2023-03-05T12:52:24.177Z,99434.97
2023-03-05T12:55:17.150Z,99432.69
2023-03-05T12:57:46.974Z,99432.22
2023-03-05T13:00:18.403Z,99442.41
2023-03-05T13:02:46.627Z,99441.31
2023-03-05T13:05:20.742Z,99434.09
2023-03-05T13:07:48.953Z,99447.78
2023-03-05T13:10:29.032Z,99461.09
2023-03-05T13:12:58.080Z,99456.72
2023-03-05T13:15:26.511Z,99456.72
2023-03-05T13:17:58.267Z,99466.13
2023-03-05T13:20:32.980Z,99465.31
2023-03-05T13:23:25.384Z,99468.88
2023-03-05T13:26:03.931Z,99475.66
2023-03-05T13:28:33.547Z,99474.19
2023-03-05T13:31:02.860Z,99480.97
2023-03-05T13:33:32.732Z,99481.22
2023-03-05T13:36:01.443Z,99486.63
2023-03-05T13:38:33.912Z,99491.19
2023-03-05T13:41:06.127Z,99483.19
2023-03-05T13:43:34.762Z,99486.97
2023-03-05T13:46:02.525Z,99481.97
2023-03-05T13:48:32.455Z,99476.13
2023-03-05T13:51:00.157Z,99463.03
2023-03-05T13:53:30.035Z,99465.25
2023-03-05T13:56:00.624Z,99462.50
2023-03-05T13:58:48.261Z,99458.34
2023-03-05T14:01:29.384Z,99447.44
2023-03-05T14:04:00.245Z,99439.72
2023-03-05T14:06:28.927Z,99442.53
2023-03-05T14:09:04.806Z,99436.47
2023-03-05T14:11:33.197Z,99437.25
2023-03-05T14:14:08.327Z,99445.75
2023-03-05T14:16:36.181Z,99437.97
2023-03-05T14:19:28.215Z,99437.50
2023-03-05T14:21:55.885Z,99434.28
2023-03-05T14:24:26.433Z,99432.13
2023-03-05T14:26:55.437Z,99428.75
2023-03-05T14:29:28.414Z,99424.69
2023-03-05T14:31:58.391Z,99421.00
2023-03-05T14:34:31.057Z,99429.22
2023-03-05T14:37:02.227Z,99425.63
2023-03-05T14:39:36.569Z,99433.69
2023-03-05T14:42:35.953Z,99429.78
2023-03-05T14:45:17.289Z,99430.31
2023-03-05T14:47:45.363Z,99424.47
2023-03-05T14:50:17.249Z,99432.00
2023-03-05T14:52:49.294Z,99429.94
2023-03-05T14:55:20.213Z,99432.63
2023-03-05T14:57:49.248Z,99428.81
2023-03-05T15:00:22.162Z,99425.59
2023-03-05T15:02:50.517Z,99427.50
2023-03-05T15:05:19.849Z,99432.44
2023-03-05T15:07:48.717Z,99425.16
2023-03-05T15:10:18.550Z,99427.00
2023-03-05T15:12:47.422Z,99425.72
2023-03-05T15:15:18.377Z,99424.69
2023-03-05T15:17:49.598Z,99427.78
2023-03-05T15:20:18.799Z,99422.19
2023-03-05T15:22:46.652Z,99418.28
2023-03-05T15:25:17.172Z,99415.50
2023-03-05T15:27:45.539Z,99410.19
2023-03-05T15:30:22.088Z,99416.50
2023-03-05T15:32:51.629Z,99410.38
2023-03-05T15:35:20.389Z,99414.53
2023-03-05T15:37:47.984Z,99412.34
2023-03-05T15:40:16.068Z,99419.00
2023-03-05T15:42:44.061Z,99419.53
2023-03-05T15:45:12.384Z,99421.34
2023-03-05T15:47:40.138Z,99417.97
2023-03-05T15:50:12.739Z,99411.84
2023-03-05T15:52:40.417Z,99412.53
2023-03-05T15:55:10.184Z,99414.75
2023-03-05T15:57:43.149Z,99405.53
2023-03-05T16:00:13.636Z,99410.09
2023-03-05T16:02:43.967Z,99409.09
2023-03-05T16:05:13.858Z,99407.56
2023-03-05T16:07:46.279Z,99400.94
2023-03-05T16:10:16.287Z,99411.69
2023-03-05T16:12:47.689Z,99397.69
2023-03-05T16:15:21.382Z,99397.28
2023-03-05T16:17:53.172Z,99397.56
2023-03-05T16:20:23.542Z,99393.91
2023-03-05T16:22:51.195Z,99387.91
2023-03-05T16:25:19.357Z,99396.88
2023-03-05T16:27:47.123Z,99400.38
2023-03-05T16:30:16.986Z,99394.47
2023-03-05T16:32:44.850Z,99400.22
2023-03-05T16:35:13.150Z,99409.72
2023-03-05T16:37:42.755Z,99392.94
2023-03-05T16:40:14.741Z,99401.19
2023-03-05T16:42:43.301Z,99396.91
2023-03-05T16:45:13.715Z,99391.09
2023-03-05T16:47:43.310Z,99392.09
2023-03-05T16:50:13.384Z,99390.28
2023-03-05T16:52:43.353Z,99390.31
2023-03-05T16:55:11.907Z,99387.00
2023-03-05T16:57:40.564Z,99388.81
2023-03-05T17:00:09.937Z,99395.09
2023-03-05T17:02:37.787Z,99395.91
2023-03-05T17:05:07.002Z,99402.09
2023-03-05T17:07:34.721Z,99404.03
2023-03-05T17:10:11.304Z,99402.91
2023-03-05T17:12:39.447Z,99409.91
2023-03-05T17:15:12.004Z,99410.13
2023-03-05T17:17:39.637Z,99418.50
2023-03-05T17:20:12.035Z,99426.03
2023-03-05T17:22:39.823Z,99421.00
2023-03-05T17:25:09.844Z,99422.00
2023-03-05T17:27:37.616Z,99411.50
2023-03-05T17:30:06.606Z,99427.53
2023-03-05T17:32:34.467Z,99429.13
2023-03-05T17:35:04.450Z,99425.44
2023-03-05T17:37:33.232Z,99438.56
2023-03-05T17:40:01.970Z,99425.31
2023-03-05T17:42:31.038Z,99432.88
2023-03-05T17:44:59.065Z,99430.38
2023-03-05T17:47:26.669Z,99428.44
2023-03-05T17:49:54.748Z,99433.31
2023-03-05T17:52:22.472Z,99438.94
2023-03-05T17:54:50.705Z,99444.50
2023-03-05T17:57:18.471Z,99439.22
2023-03-05T17:59:48.682Z,99441.03
2023-03-05T18:02:16.561Z,99436.31
2023-03-05T18:04:44.705Z,99432.28
2023-03-05T18:07:12.416Z,99431.06
2023-03-05T18:09:40.463Z,99433.03
2023-03-05T18:12:08.406Z,99429.34
2023-03-05T18:14:36.441Z,99436.50
2023-03-05T18:17:05.717Z,99430.78
2023-03-05T18:19:34.009Z,99419.63
2023-03-05T18:22:01.656Z,99422.41
2023-03-05T18:24:29.865Z,99428.69
2023-03-05T18:26:57.464Z,99431.06
2023-03-05T18:29:25.674Z,99430.22
2023-03-05T18:31:53.487Z,99431.00
2023-03-05T18:34:23.075Z,99429.25
2023-03-05T18:36:51.073Z,99423.75
2023-03-05T18:39:19.221Z,99420.13
2023-03-05T18:41:47.970Z,99416.28
2023-03-05T18:44:16.453Z,99412.88
2023-03-05T18:46:44.069Z,99408.69
2023-03-05T18:49:12.340Z,99417.19
2023-03-05T18:51:42.536Z,99410.03
2023-03-05T18:54:10.833Z,99412.19
2023-03-05T18:56:38.490Z,99405.72
2023-03-05T18:59:06.825Z,99409.25
2023-03-05T19:01:34.690Z,99404.81
2023-03-05T19:04:03.545Z,99405.66
2023-03-05T19:06:31.349Z,99411.38
2023-03-05T19:09:01.020Z,99407.31
2023-03-05T19:11:28.894Z,99401.75
2023-03-05T19:13:56.944Z,99394.78
2023-03-05T19:16:27.018Z,99398.28
2023-03-05T19:18:55.823Z,99406.63
2023-03-05T19:21:23.985Z,99401.69
2023-03-05T19:23:52.545Z,99403.63
2023-03-05T19:26:21.785Z,99406.19
2023-03-05T19:28:50.003Z,99398.22
2023-03-05T19:31:20.933Z,99393.78
2023-03-05T19:33:49.461Z,99398.88
2023-03-05T19:36:17.460Z,99394.03
2023-03-05T19:38:48.660Z,99392.00
2023-03-05T19:41:17.423Z,99393.50
2023-03-05T19:43:48.539Z,99386.41
2023-03-05T19:46:17.114Z,99392.22
2023-03-05T19:48:45.824Z,99383.41
2023-03-05T19:51:15.672Z,99393.56
2023-03-05T19:53:44.145Z,99394.94
2023-03-05T19:56:12.794Z,99403.91
2023-03-05T19:58:40.820Z,99399.19
2023-03-05T20:01:13.030Z,99391.97
2023-03-05T20:03:44.092Z,99387.06
2023-03-05T20:06:12.147Z,99384.47
2023-03-05T20:08:40.495Z,99394.03
2023-03-05T20:11:10.810Z,99391.69
2023-03-05T20:13:39.241Z,99389.31
2023-03-05T20:16:16.361Z,99391.00
2023-03-05T20:18:45.602Z,99390.03
2023-03-05T20:21:15.900Z,99383.38
2023-03-05T20:23:44.199Z,99382.03
2023-03-05T20:26:14.905Z,99382.72
2023-03-05T20:28:43.300Z,99384.13
2023-03-05T20:31:11.357Z,99383.31
2023-03-05T20:33:41.384Z,99387.59
2023-03-05T20:36:12.125Z,99377.09
2023-03-05T20:38:40.347Z,99380.09
2023-03-05T20:41:10.796Z,99375.19
2023-03-05T20:43:42.300Z,99374.03
2023-03-05T20:46:16.555Z,99373.91
2023-03-05T20:48:47.755Z,99371.31
2023-03-05T20:51:17.702Z,99364.13
2023-03-05T20:53:45.888Z,99367.28
2023-03-05T20:56:13.736Z,99367.56
2023-03-05T20:58:42.134Z,99371.81
2023-03-05T21:01:09.960Z,99367.84
2023-03-05T21:03:38.397Z,99368.16
2023-03-05T21:06:08.399Z,99364.06
2023-03-05T21:08:37.877Z,99370.47
2023-03-05T21:11:06.799Z,99370.47
2023-03-05T21:13:35.763Z,99377.81
2023-03-05T21:16:07.085Z,99367.63
2023-03-05T21:18:35.636Z,99372.28
2023-03-05T21:21:03.426Z,99362.91
2023-03-05T21:23:33.856Z,99374.03
2023-03-05T21:26:04.593Z,99371.94
2023-03-05T21:28:32.666Z,99360.94
2023-03-05T21:31:06.943Z,99368.00
2023-03-05T21:33:35.612Z,99366.44
2023-03-05T21:36:03.724Z,99366.28
2023-03-05T21:38:33.628Z,99372.03
2023-03-05T21:41:02.096Z,99364.53
2023-03-05T21:43:30.702Z,99355.28
2023-03-05T21:46:00.538Z,99348.59
2023-03-05T21:48:28.832Z,99344.44
2023-03-05T21:50:56.734Z,99348.13
2023-03-05T21:53:25.017Z,99347.28
2023-03-05T21:55:54.231Z,99348.47
2023-03-05T21:58:22.396Z,99350.97
2023-03-05T22:00:52.738Z,99351.72
2023-03-05T22:03:21.447Z,99346.78
2023-03-05T22:05:51.904Z,99344.97
2023-03-05T22:08:20.242Z,99340.97
2023-03-05T22:10:47.806Z,99335.69
2023-03-05T22:13:18.699Z,99345.56
2023-03-05T22:15:48.733Z,99341.63
2023-03-05T22:18:18.849Z,99340.13
2023-03-05T22:20:46.593Z,99336.88
2023-03-05T22:23:15.148Z,99332.31
2023-03-05T22:25:43.486Z,99329.91
2023-03-05T22:28:12.711Z,99329.31
2023-03-05T22:30:45.408Z,99321.91
2023-03-05T22:33:13.855Z,99319.59
2023-03-05T22:35:42.181Z,99319.56
2023-03-05T22:38:11.301Z,99318.25
2023-03-05T22:40:41.755Z,99308.38
2023-03-05T22:43:09.973Z,99312.47
2023-03-05T22:45:37.747Z,99310.31
2023-03-05T22:48:08.108Z,99303.75
2023-03-05T22:50:35.771Z,99306.41
2023-03-05T22:53:04.041Z,99293.69
2023-03-05T22:55:31.684Z,99290.53
2023-03-05T22:58:00.127Z,99292.28
2023-03-05T23:00:27.686Z,99291.44
2023-03-05T23:02:56.486Z,99294.78
2023-03-05T23:05:25.432Z,99297.00
2023-03-05T23:07:53.540Z,99294.44
2023-03-05T23:10:25.698Z,99287.63
2023-03-05T23:12:56.711Z,99291.00
2023-03-05T23:15:27.613Z,99289.38
2023-03-05T23:17:56.206Z,99292.44
2023-03-05T23:20:27.978Z,99290.06
2023-03-05T23:22:56.414Z,99285.69
2023-03-05T23:25:26.194Z,99292.44
2023-03-05T23:27:55.435Z,99294.16
2023-03-05T23:30:24.109Z,99288.41
2023-03-05T23:32:53.388Z,99282.34
2023-03-05T23:35:23.332Z,99295.44
2023-03-05T23:37:53.414Z,99283.72
2023-03-05T23:40:22.692Z,99284.69
2023-03-05T23:42:51.007Z,99291.31
2023-03-05T23:45:20.820Z,99283.66
2023-03-05T23:47:49.723Z,99282.47
2023-03-05T23:50:19.789Z,99285.13
2023-03-05T23:52:48.830Z,99289.63
2023-03-05T23:55:22.471Z,99284.38
2023-03-05T23:57:50.988Z,99284.38
